Αρχική σελίδα
METAR-TAF:

METAR-TAF

Αεροδρόμια :

Γιβραλτάρ, Γιβραλτάρ

γεωγραφικό πλάτος: 36-09N, γεωγραφικό μήκος: 005-21W, υψόμετρο: 5 μ

Παρών καιρός

Η αναφορά έγινε 51 λεπτά πριν, στις 20:50 UTC
Άνεμος 11 kt από Α
Θερμοκρασία 22°C
Υγρασία 83%
Πίεση 1015 hPa
Ορατότητα 10 χλμ και άνω

METAR: LXGB 232050Z AUTO 09011KT 9999 // NCD 22/19 Q1015

Χρόνος: 23:41 (21:41 UTC)

Πρόγνωση Καιρού

Η αναφορά έγινε 8 ώρες και 24 λεπτά πριν, στις 13:17 UTC
Η πρόγνωση ισχύει από τις 23 στις 15 UTC έως τις 23 στις 22 UTC
Άνεμος 10 kt από Α
Ορατότητα 10 χλμ και άνω
Λίγα νέφη σε ύψος 2600 πόδια

TAF: LXGB 231317Z 2315/2322 09010KT 9999 FEW026

Μετεωρολογικές αναφορές και προγνώσεις για περισσότερα από 4000 αεροδρόμια (δελτία METAR και TAF).

Οι διαθέσιμοι σταθμοί απεικονίζονται στο χάρτη με κίτρινες και κόκκινες κουκκίδες.

Μετακινήστε το ποντίκι πάνω από τις κουκκίδες για να δείτε το όνομα του σταθμού.

Στη συνέχεια, κάντε κλικ για να δείτε τις μετεωρολογικές αναφορές και τις προγνώσεις καιρού.

Για να αλλάξετε το χάρτη: κάντε κλικ στα πράσινα κουμπιά με τον μαύρο σταυρό για να ζουμάρετε, στο πράσινο κουμπί με την παύλα για να αφαιρέσετε το ζουμ ή στα πράσινα βέλη για να αντιπαραβάλλετε χάρτες.


METAR-TAF: